Nyk Romulus — 9V7644 — position and weather

sailwx.info

Track history (hours):
 
Tides and Currents Weather Stations Pressure Air Temp Water Temp Dewpoint Dewpoint Depression Visibility Wind Speed Wind Dir Waves Ship Positions

Nyk Romulus

Last reported at 2019-Feb-19 18:52 UTC. Time now 2019-Feb-20 07:15 UTC.
Position N 09°39' W 079°44'.

Length 294 m; draft 10.2 m.

Type: Cargo ship. MMSI: 563079000.

Date/timePositionNaut miles runAvg speedWind from/ knotsBaromVisibWave heightAir tempDewpointWater temp
2019-Feb-19 18:52N 09°39' W 079°44'512.9
2019-Feb-19 18:30N 09°35' W 079°46'612.9
2019-Feb-19 18:00N 09°31' W 079°51'612.9
2019-Feb-19 17:30N 09°26' W 079°55'611.2
2019-Feb-19 17:00N 09°20' W 079°55'4 7.5
2019-Feb-19 16:30N 09°17' W 079°55'0 0.1
2019-Feb-19 16:00N 09°17' W 079°55'0 0.7
2019-Feb-19 15:30N 09°16' W 079°55'0 1.0
2019-Feb-19 15:00N 09°16' W 079°55'3 6.3
2019-Feb-19 14:30N 09°13' W 079°55'810.8
2019-Feb-19 13:43N 09°07' W 079°48'  
2019-Feb-12 16:19N 29°51' W 116°43'620.4
2019-Feb-12 16:00N 29°57' W 116°46'1020.3
2019-Feb-12 15:29N 30°07' W 116°50'2120.4
2019-Feb-12 14:28N 30°27' W 116°58'3720.5
2019-Feb-12 12:41N 31°01' W 117°12'420.5
2019-Feb-12 12:30N 31°05' W 117°13'1020.3
2019-Feb-12 12:00N 31°14' W 117°16'1020.5
2019-Feb-12 11:30N 31°24' W 117°20'1020.5
2019-Feb-12 11:00N 31°34' W 117°24'1120.7
2019-Feb-12 10:30N 31°44' W 117°28'1020.7
2019-Feb-12 10:01N 31°53' W 117°32'1020.6
2019-Feb-12 09:30N 32°03' W 117°36'1020.6
2019-Feb-12 09:00N 32°13' W 117°40'1020.4
2019-Feb-12 08:31N 32°23' W 117°43'1020.7
2019-Feb-12 08:00N 32°32' W 117°48'1020.5
2019-Feb-12 07:30N 32°42' W 117°51'1020.6
2019-Feb-12 07:00N 32°52' W 117°54'1020.1
2019-Feb-12 06:30N 33°02' W 117°58'713.1
2019-Feb-12 06:00N 33°07' W 118°02'611.7
2019-Feb-12 05:30N 33°13' W 118°04'611.8
2019-Feb-12 05:00N 33°19' W 118°07'611.7
2019-Feb-12 04:30N 33°24' W 118°09'611.8
2019-Feb-12 04:00N 33°30' W 118°11'611.8
2019-Feb-12 03:30N 33°35' W 118°13'611.5
2019-Feb-12 03:00N 33°41' W 118°15'4 7.4
2019-Feb-12 02:30N 33°44' W 118°17'1 2.9
2019-Feb-12 02:00N 33°46' W 118°17'0 0.0
2019-Feb-12 01:29N 33°46' W 118°17'0 0.0
2019-Feb-12 00:56N 33°46' W 118°17'0 0.0
2019-Feb-12 00:29N 33°46' W 118°17'0 0.0
2019-Feb-11 23:59N 33°46' W 118°17'0 0.0
2019-Feb-11 23:29N 33°46' W 118°17'0 0.0
2019-Feb-11 22:59N 33°46' W 118°17'0 0.0
2019-Feb-11 22:29N 33°46' W 118°17'0 0.0
2019-Feb-11 21:59N 33°46' W 118°17'0 0.0
2019-Feb-11 21:29N 33°46' W 118°17'0 0.0
2019-Feb-11 20:59N 33°46' W 118°17'0 0.0
2019-Feb-11 20:29N 33°46' W 118°17'0 0.0
2019-Feb-11 19:53N 33°46' W 118°17'0 0.0
2019-Feb-11 19:26N 33°46' W 118°17'0 0.0
2019-Feb-11 18:59N 33°46' W 118°17'0 0.0
2019-Feb-11 18:29N 33°46' W 118°17'0 0.0
2019-Feb-11 17:59N 33°46' W 118°17'0 0.0
2019-Feb-11 17:29N 33°46' W 118°17'0 0.0
2019-Feb-11 16:56N 33°46' W 118°17'0 0.0
2019-Feb-11 16:29N 33°46' W 118°17'0 0.0
2019-Feb-11 15:56N 33°46' W 118°17'0 0.0
2019-Feb-11 15:29N 33°46' W 118°17'0 0.0
2019-Feb-11 14:59N 33°46' W 118°17'0 0.0
2019-Feb-11 14:29N 33°46' W 118°17'0 0.0
2019-Feb-11 13:56N 33°46' W 118°17'0 0.0
2019-Feb-11 13:29N 33°46' W 118°17'0 0.0
2019-Feb-11 12:59N 33°46' W 118°17'0 0.0
2019-Feb-11 12:29N 33°46' W 118°17'0 0.0
2019-Feb-11 11:59N 33°46' W 118°17'0 0.0
2019-Feb-11 11:26N 33°46' W 118°17'0 0.0
2019-Feb-11 10:56N 33°46' W 118°17'0 0.0
2019-Feb-11 10:26N 33°46' W 118°17'0 0.0
2019-Feb-11 09:56N 33°46' W 118°17'0 0.0
2019-Feb-11 09:29N 33°46' W 118°17'0 0.0
2019-Feb-11 08:56N 33°46' W 118°17'0 0.0
2019-Feb-11 08:20N 33°46' W 118°17'0 0.0
2019-Feb-11 07:59N 33°46' W 118°17'0 0.0
2019-Feb-11 07:26N 33°46' W 118°17'0 0.0
2019-Feb-11 06:59N 33°46' W 118°17'0 0.0
2019-Feb-11 06:26N 33°46' W 118°17'0 0.0
2019-Feb-11 05:56N 33°46' W 118°17'0 0.0
2019-Feb-11 05:29N 33°46' W 118°17'0 0.0
2019-Feb-11 04:59N 33°46' W 118°17'0 0.0
2019-Feb-11 04:23N 33°46' W 118°17'0 0.0
2019-Feb-11 03:59N 33°46' W 118°17'0 0.0
2019-Feb-11 03:29N 33°46' W 118°17'0 0.0
2019-Feb-11 02:59N 33°46' W 118°17'0 0.0
2019-Feb-11 02:26N 33°46' W 118°17'0 0.0
2019-Feb-11 01:59N 33°46' W 118°17'1 1.9
2019-Feb-11 01:30N 33°45' W 118°16'3 5.5
2019-Feb-11 01:00N 33°42' W 118°15'4 8.0
2019-Feb-11 00:30N 33°39' W 118°14'3 6.8
2019-Feb-11 00:00N 33°36' W 118°16'510.4
2019-Feb-10 23:30N 33°37' W 118°23'510.7
2019-Feb-10 23:00N 33°40' W 118°28'611.6
2019-Feb-10 22:30N 33°43' W 118°34'611.4
2019-Feb-10 22:00N 33°45' W 118°40'611.5
2019-Feb-10 21:30N 33°48' W 118°46'611.6
2019-Feb-10 21:00N 33°51' W 118°52'611.3
2019-Feb-10 20:30N 33°54' W 118°58'611.5
2019-Feb-10 19:59N 33°57' W 119°04'611.5
2019-Feb-10 19:30N 33°60' W 119°10'714.2
2019-Feb-10 19:00N 34°03' W 119°18'917.4
2019-Feb-10 18:30N 34°05' W 119°28'917.6
2019-Feb-10 18:01N 34°08' W 119°38'917.9
2019-Feb-10 17:30N 34°10' W 119°49'1019.7
2019-Feb-10 17:00N 34°12' W 120°00'1121.1
2019-Feb-10 16:28N 34°15' W 120°13'1021.6
2019-Feb-10 16:00N 34°18' W 120°25'1121.3
2019-Feb-10 15:30N 34°21' W 120°37'1121.7
2019-Feb-10 15:01N 34°24' W 120°50'1020.8
2019-Feb-10 14:30N 34°30' W 120°60'1121.7
2019-Feb-10 14:01N 34°39' W 121°08'1121.7
2019-Feb-10 13:31N 34°48' W 121°15'1121.8
2019-Feb-10 13:00N 34°56' W 121°23'1121.5
2019-Feb-10 12:31N 35°05' W 121°31'1121.5
2019-Feb-10 12:00N 35°14' W 121°38'1121.4
2019-Feb-10 11:31N 35°23' W 121°46'10620.9
2019-Feb-10 06:27N 36°60' W 122°39'920.7
2019-Feb-10 06:00N 37°08' W 122°43'1020.5
2019-Feb-10 05:30N 37°18' W 122°43'1020.6
2019-Feb-10 05:01N 37°29' W 122°44'1020.3
2019-Feb-10 04:31N 37°39' W 122°43'713.2
2019-Feb-10 04:00N 37°45' W 122°40'510.1
2019-Feb-10 03:30N 37°47' W 122°35'612.8
2019-Feb-10 03:00N 37°50' W 122°27'510.5
2019-Feb-10 02:30N 37°48' W 122°21'2 4.3
2019-Feb-10 02:00N 37°48' W 122°19'0 0.0
2019-Feb-10 01:30N 37°48' W 122°19'0 0.0
2019-Feb-10 01:00N 37°48' W 122°19'0 0.0
2019-Feb-10 00:30N 37°48' W 122°19'0 0.0
2019-Feb-10 00:00N 37°48' W 122°19'0 0.0
2019-Feb-09 23:30N 37°48' W 122°19'0 0.0
2019-Feb-09 23:00N 37°48' W 122°19'0 0.0
2019-Feb-09 22:30N 37°48' W 122°19'0 0.0
2019-Feb-09 22:00N 37°48' W 122°19'0 0.0
2019-Feb-09 21:30N 37°48' W 122°19'0 0.0
2019-Feb-09 21:00N 37°48' W 122°19'0 0.0
2019-Feb-09 20:30N 37°48' W 122°19'0 0.0
2019-Feb-09 20:00N 37°48' W 122°19'0 0.0
2019-Feb-09 19:30N 37°48' W 122°19'0 0.0
2019-Feb-09 19:00N 37°48' W 122°19'  
Track history (hours):
 
Tides and Currents Weather Stations Pressure Air Temp Water Temp Dewpoint Dewpoint Depression Visibility Wind Speed Wind Dir Waves Ship Positions

Nyk Romulus

Last reported at 2019-Feb-19 18:52 UTC. Time now 2019-Feb-20 07:15 UTC.
Position N 09°39' W 079°44'.

Length 294 m; draft 10.2 m.

Type: Cargo ship. MMSI: 563079000.

Date/timePositionNaut miles runAvg speedWind from/ knotsBaromVisibWave heightAir tempDewpointWater temp
2019-Feb-19 18:52N 09°39' W 079°44'512.9
2019-Feb-19 18:30N 09°35' W 079°46'612.9
2019-Feb-19 18:00N 09°31' W 079°51'612.9
2019-Feb-19 17:30N 09°26' W 079°55'611.2
2019-Feb-19 17:00N 09°20' W 079°55'4 7.5
2019-Feb-19 16:30N 09°17' W 079°55'0 0.1
2019-Feb-19 16:00N 09°17' W 079°55'0 0.7
2019-Feb-19 15:30N 09°16' W 079°55'0 1.0
2019-Feb-19 15:00N 09°16' W 079°55'3 6.3
2019-Feb-19 14:30N 09°13' W 079°55'810.8
2019-Feb-19 13:43N 09°07' W 079°48'  
2019-Feb-12 16:19N 29°51' W 116°43'620.4
2019-Feb-12 16:00N 29°57' W 116°46'1020.3
2019-Feb-12 15:29N 30°07' W 116°50'2120.4
2019-Feb-12 14:28N 30°27' W 116°58'3720.5
2019-Feb-12 12:41N 31°01' W 117°12'420.5
2019-Feb-12 12:30N 31°05' W 117°13'1020.3
2019-Feb-12 12:00N 31°14' W 117°16'1020.5
2019-Feb-12 11:30N 31°24' W 117°20'1020.5
2019-Feb-12 11:00N 31°34' W 117°24'1120.7
2019-Feb-12 10:30N 31°44' W 117°28'1020.7
2019-Feb-12 10:01N 31°53' W 117°32'1020.6
2019-Feb-12 09:30N 32°03' W 117°36'1020.6
2019-Feb-12 09:00N 32°13' W 117°40'1020.4
2019-Feb-12 08:31N 32°23' W 117°43'1020.7
2019-Feb-12 08:00N 32°32' W 117°48'1020.5
2019-Feb-12 07:30N 32°42' W 117°51'1020.6
2019-Feb-12 07:00N 32°52' W 117°54'1020.1
2019-Feb-12 06:30N 33°02' W 117°58'713.1
2019-Feb-12 06:00N 33°07' W 118°02'611.7
2019-Feb-12 05:30N 33°13' W 118°04'611.8
2019-Feb-12 05:00N 33°19' W 118°07'611.7
2019-Feb-12 04:30N 33°24' W 118°09'611.8
2019-Feb-12 04:00N 33°30' W 118°11'611.8
2019-Feb-12 03:30N 33°35' W 118°13'611.5
2019-Feb-12 03:00N 33°41' W 118°15'4 7.4
2019-Feb-12 02:30N 33°44' W 118°17'1 2.9
2019-Feb-12 02:00N 33°46' W 118°17'0 0.0
2019-Feb-12 01:29N 33°46' W 118°17'0 0.0
2019-Feb-12 00:56N 33°46' W 118°17'0 0.0
2019-Feb-12 00:29N 33°46' W 118°17'0 0.0
2019-Feb-11 23:59N 33°46' W 118°17'0 0.0
2019-Feb-11 23:29N 33°46' W 118°17'0 0.0
2019-Feb-11 22:59N 33°46' W 118°17'0 0.0
2019-Feb-11 22:29N 33°46' W 118°17'0 0.0
2019-Feb-11 21:59N 33°46' W 118°17'0 0.0
2019-Feb-11 21:29N 33°46' W 118°17'0 0.0
2019-Feb-11 20:59N 33°46' W 118°17'0 0.0
2019-Feb-11 20:29N 33°46' W 118°17'0 0.0
2019-Feb-11 19:53N 33°46' W 118°17'0 0.0
2019-Feb-11 19:26N 33°46' W 118°17'0 0.0
2019-Feb-11 18:59N 33°46' W 118°17'0 0.0
2019-Feb-11 18:29N 33°46' W 118°17'0 0.0
2019-Feb-11 17:59N 33°46' W 118°17'0 0.0
2019-Feb-11 17:29N 33°46' W 118°17'0 0.0
2019-Feb-11 16:56N 33°46' W 118°17'0 0.0
2019-Feb-11 16:29N 33°46' W 118°17'0 0.0
2019-Feb-11 15:56N 33°46' W 118°17'0 0.0
2019-Feb-11 15:29N 33°46' W 118°17'0 0.0
2019-Feb-11 14:59N 33°46' W 118°17'0 0.0
2019-Feb-11 14:29N 33°46' W 118°17'0 0.0
2019-Feb-11 13:56N 33°46' W 118°17'0 0.0
2019-Feb-11 13:29N 33°46' W 118°17'0 0.0
2019-Feb-11 12:59N 33°46' W 118°17'0 0.0
2019-Feb-11 12:29N 33°46' W 118°17'0 0.0
2019-Feb-11 11:59N 33°46' W 118°17'0 0.0
2019-Feb-11 11:26N 33°46' W 118°17'0 0.0
2019-Feb-11 10:56N 33°46' W 118°17'0 0.0
2019-Feb-11 10:26N 33°46' W 118°17'0 0.0
2019-Feb-11 09:56N 33°46' W 118°17'0 0.0
2019-Feb-11 09:29N 33°46' W 118°17'0 0.0
2019-Feb-11 08:56N 33°46' W 118°17'0 0.0
2019-Feb-11 08:20N 33°46' W 118°17'0 0.0
2019-Feb-11 07:59N 33°46' W 118°17'0 0.0
2019-Feb-11 07:26N 33°46' W 118°17'0 0.0
2019-Feb-11 06:59N 33°46' W 118°17'0 0.0
2019-Feb-11 06:26N 33°46' W 118°17'0 0.0
2019-Feb-11 05:56N 33°46' W 118°17'0 0.0
2019-Feb-11 05:29N 33°46' W 118°17'0 0.0
2019-Feb-11 04:59N 33°46' W 118°17'0 0.0
2019-Feb-11 04:23N 33°46' W 118°17'0 0.0
2019-Feb-11 03:59N 33°46' W 118°17'0 0.0
2019-Feb-11 03:29N 33°46' W 118°17'0 0.0
2019-Feb-11 02:59N 33°46' W 118°17'0 0.0
2019-Feb-11 02:26N 33°46' W 118°17'0 0.0
2019-Feb-11 01:59N 33°46' W 118°17'1 1.9
2019-Feb-11 01:30N 33°45' W 118°16'3 5.5
2019-Feb-11 01:00N 33°42' W 118°15'4 8.0
2019-Feb-11 00:30N 33°39' W 118°14'3 6.8
2019-Feb-11 00:00N 33°36' W 118°16'510.4
2019-Feb-10 23:30N 33°37' W 118°23'510.7
2019-Feb-10 23:00N 33°40' W 118°28'611.6
2019-Feb-10 22:30N 33°43' W 118°34'611.4
2019-Feb-10 22:00N 33°45' W 118°40'611.5
2019-Feb-10 21:30N 33°48' W 118°46'611.6
2019-Feb-10 21:00N 33°51' W 118°52'611.3
2019-Feb-10 20:30N 33°54' W 118°58'611.5
2019-Feb-10 19:59N 33°57' W 119°04'611.5
2019-Feb-10 19:30N 33°60' W 119°10'714.2
2019-Feb-10 19:00N 34°03' W 119°18'917.4
2019-Feb-10 18:30N 34°05' W 119°28'917.6
2019-Feb-10 18:01N 34°08' W 119°38'917.9
2019-Feb-10 17:30N 34°10' W 119°49'1019.7
2019-Feb-10 17:00N 34°12' W 120°00'1121.1
2019-Feb-10 16:28N 34°15' W 120°13'1021.6
2019-Feb-10 16:00N 34°18' W 120°25'1121.3
2019-Feb-10 15:30N 34°21' W 120°37'1121.7
2019-Feb-10 15:01N 34°24' W 120°50'1020.8
2019-Feb-10 14:30N 34°30' W 120°60'1121.7
2019-Feb-10 14:01N 34°39' W 121°08'1121.7
2019-Feb-10 13:31N 34°48' W 121°15'1121.8
2019-Feb-10 13:00N 34°56' W 121°23'1121.5
2019-Feb-10 12:31N 35°05' W 121°31'1121.5
2019-Feb-10 12:00N 35°14' W 121°38'1121.4
2019-Feb-10 11:31N 35°23' W 121°46'10620.9
2019-Feb-10 06:27N 36°60' W 122°39'920.7
2019-Feb-10 06:00N 37°08' W 122°43'1020.5
2019-Feb-10 05:30N 37°18' W 122°43'1020.6
2019-Feb-10 05:01N 37°29' W 122°44'1020.3
2019-Feb-10 04:31N 37°39' W 122°43'713.2
2019-Feb-10 04:00N 37°45' W 122°40'510.1
2019-Feb-10 03:30N 37°47' W 122°35'612.8
2019-Feb-10 03:00N 37°50' W 122°27'510.5
2019-Feb-10 02:30N 37°48' W 122°21'2 4.3
2019-Feb-10 02:00N 37°48' W 122°19'0 0.0
2019-Feb-10 01:30N 37°48' W 122°19'0 0.0
2019-Feb-10 01:00N 37°48' W 122°19'0 0.0
2019-Feb-10 00:30N 37°48' W 122°19'0 0.0
2019-Feb-10 00:00N 37°48' W 122°19'0 0.0
2019-Feb-09 23:30N 37°48' W 122°19'0 0.0
2019-Feb-09 23:00N 37°48' W 122°19'0 0.0
2019-Feb-09 22:30N 37°48' W 122°19'0 0.0
2019-Feb-09 22:00N 37°48' W 122°19'0 0.0
2019-Feb-09 21:30N 37°48' W 122°19'0 0.0
2019-Feb-09 21:00N 37°48' W 122°19'0 0.0
2019-Feb-09 20:30N 37°48' W 122°19'0 0.0
2019-Feb-09 20:00N 37°48' W 122°19'0 0.0
2019-Feb-09 19:30N 37°48' W 122°19'0 0.0
2019-Feb-09 19:00N 37°48' W 122°19'  

Dump ship's entire track history